createdAt,value
2022-12-23T00:00:58.314Z,98.39
2022-12-23T00:03:25.944Z,98.39
2022-12-23T00:05:53.348Z,98.24
2022-12-23T00:08:21.554Z,98.46
2022-12-23T00:10:50.661Z,98.59
2022-12-23T00:13:36.376Z,98.54
2022-12-23T00:16:08.358Z,98.39
2022-12-23T00:18:37.017Z,98.31
2022-12-23T00:21:11.928Z,98.53
2022-12-23T00:23:41.496Z,98.50
2022-12-23T00:26:16.197Z,98.49
2022-12-23T00:28:42.823Z,98.45
2022-12-23T00:31:10.747Z,98.40
2022-12-23T00:33:40.137Z,98.45
2022-12-23T00:36:25.198Z,98.47
2022-12-23T00:39:10.791Z,98.46
2022-12-23T00:41:56.828Z,98.58
2022-12-23T00:44:23.809Z,98.42
2022-12-23T00:46:50.928Z,98.49
2022-12-23T00:49:37.902Z,98.63
2022-12-23T00:52:06.812Z,98.56
2022-12-23T00:54:34.244Z,98.57
2022-12-23T00:57:01.313Z,98.55
2022-12-23T00:59:27.888Z,98.47
2022-12-23T01:02:13.408Z,98.24
2022-12-23T01:04:58.597Z,98.60
2022-12-23T01:07:25.675Z,99.00
2022-12-23T01:09:55.173Z,98.40
2022-12-23T01:12:22.199Z,98.53
2022-12-23T01:14:49.535Z,98.49
2022-12-23T01:17:20.385Z,98.59
2022-12-23T01:19:47.480Z,98.48
2022-12-23T01:22:16.670Z,98.51
2022-12-23T01:24:43.883Z,98.57
2022-12-23T01:27:10.719Z,98.44
2022-12-23T01:29:37.261Z,98.48
2022-12-23T01:32:04.656Z,98.43
2022-12-23T01:34:37.153Z,98.35
2022-12-23T01:37:04.752Z,98.50
2022-12-23T01:39:31.890Z,98.54
2022-12-23T01:42:19.836Z,98.57
2022-12-23T01:45:03.088Z,98.53
2022-12-23T01:48:10.052Z,98.44
2022-12-23T01:50:48.687Z,98.66
2022-12-23T01:53:21.477Z,98.48
2022-12-23T01:55:50.724Z,98.52
2022-12-23T01:58:23.621Z,98.51
2022-12-23T02:01:08.504Z,98.61
2022-12-23T02:03:42.834Z,98.46
2022-12-23T02:06:36.829Z,98.59
2022-12-23T02:09:17.466Z,98.42
2022-12-23T02:12:09.191Z,98.41
2022-12-23T02:15:08.164Z,98.52
2022-12-23T02:17:49.700Z,98.48
2022-12-23T02:20:37.992Z,98.56
2022-12-23T02:23:45.890Z,98.36
2022-12-23T02:26:50.259Z,98.46
2022-12-23T02:29:44.685Z,98.52
2022-12-23T02:32:16.065Z,98.46
2022-12-23T02:35:10.535Z,98.43
2022-12-23T02:37:50.778Z,98.37
2022-12-23T02:40:35.151Z,98.46
2022-12-23T02:43:13.862Z,98.41
2022-12-23T02:45:47.897Z,98.38
2022-12-23T02:48:25.924Z,98.39
2022-12-23T02:50:58.792Z,98.39
2022-12-23T02:53:32.295Z,98.45
2022-12-23T02:56:04.095Z,98.48
2022-12-23T02:58:37.864Z,98.22
2022-12-23T03:01:08.251Z,98.30
2022-12-23T03:03:37.561Z,98.23
2022-12-23T03:06:17.657Z,98.21
2022-12-23T03:08:46.142Z,98.47
2022-12-23T03:11:16.051Z,98.14
2022-12-23T03:14:21.599Z,98.32
2022-12-23T03:16:53.153Z,98.21
2022-12-23T03:19:51.211Z,98.18
2022-12-23T03:22:33.360Z,98.31
2022-12-23T03:25:18.348Z,98.24
2022-12-23T03:27:52.880Z,98.26
2022-12-23T03:30:26.328Z,98.25
2022-12-23T03:32:57.227Z,98.12
2022-12-23T03:35:30.995Z,98.30
2022-12-23T03:38:01.599Z,98.25
2022-12-23T03:40:41.890Z,98.08
2022-12-23T03:43:14.929Z,98.34
2022-12-23T03:45:53.530Z,98.18
2022-12-23T03:48:26.992Z,98.22
2022-12-23T03:51:00.417Z,98.23
2022-12-23T03:53:34.847Z,98.27
2022-12-23T03:56:09.584Z,98.09
2022-12-23T03:58:47.842Z,98.08
2022-12-23T04:01:43.283Z,98.34
2022-12-23T04:04:19.836Z,98.12
2022-12-23T04:07:00.403Z,98.24
2022-12-23T04:09:31.104Z,98.22
2022-12-23T04:11:58.391Z,98.24
2022-12-23T04:14:25.249Z,98.27
2022-12-23T04:16:55.339Z,98.10
2022-12-23T04:19:22.259Z,98.13
2022-12-23T04:21:49.702Z,98.37
2022-12-23T04:24:16.692Z,98.14
2022-12-23T04:26:47.736Z,97.83
2022-12-23T04:29:15.444Z,98.25
2022-12-23T04:31:44.517Z,98.26
2022-12-23T04:34:18.359Z,98.18
2022-12-23T04:36:47.589Z,98.25
2022-12-23T04:39:14.254Z,98.12
2022-12-23T04:41:40.881Z,98.04
2022-12-23T04:44:08.031Z,98.22
2022-12-23T04:46:35.008Z,98.14
2022-12-23T04:49:07.750Z,98.02
2022-12-23T04:51:34.403Z,97.99
2022-12-23T04:54:01.501Z,98.04
2022-12-23T04:56:28.635Z,98.01
2022-12-23T04:58:55.576Z,97.94
2022-12-23T05:01:22.922Z,98.11
2022-12-23T05:03:49.962Z,97.88
2022-12-23T05:06:16.898Z,98.04
2022-12-23T05:08:43.655Z,98.10
2022-12-23T05:11:10.654Z,98.24
2022-12-23T05:13:37.257Z,97.87
2022-12-23T05:16:04.008Z,98.05
2022-12-23T05:18:31.421Z,97.93
2022-12-23T05:20:58.966Z,97.98
2022-12-23T05:23:26.243Z,98.05
2022-12-23T05:25:55.078Z,98.03
2022-12-23T05:28:23.055Z,98.07
2022-12-23T05:30:57.424Z,98.10
2022-12-23T05:33:27.691Z,98.00
2022-12-23T05:35:58.823Z,97.79
2022-12-23T05:38:26.014Z,97.81
2022-12-23T05:40:55.291Z,97.85
2022-12-23T05:43:22.488Z,97.90
2022-12-23T05:45:50.095Z,97.75
2022-12-23T05:48:19.957Z,97.86
2022-12-23T05:50:50.255Z,97.87
2022-12-23T05:53:18.659Z,97.82
2022-12-23T05:55:47.359Z,97.65
2022-12-23T05:58:15.005Z,97.68
2022-12-23T06:00:41.889Z,97.91
2022-12-23T06:03:09.265Z,97.75
2022-12-23T06:05:37.907Z,97.66
2022-12-23T06:08:05.286Z,97.61
2022-12-23T06:10:33.459Z,97.86
2022-12-23T06:13:00.890Z,97.85
2022-12-23T06:15:32.547Z,97.86
2022-12-23T06:17:59.628Z,97.82
2022-12-23T06:20:30.147Z,97.71
2022-12-23T06:22:58.333Z,97.53
2022-12-23T06:25:27.883Z,97.82
2022-12-23T06:27:55.180Z,97.72
2022-12-23T06:30:25.537Z,97.78
2022-12-23T06:32:52.047Z,97.56
2022-12-23T06:35:19.811Z,97.84
2022-12-23T06:37:46.760Z,97.98
2022-12-23T06:40:14.998Z,98.02
2022-12-23T06:42:42.188Z,97.78
2022-12-23T06:45:11.969Z,97.76
2022-12-23T06:47:39.420Z,97.97
2022-12-23T06:50:10.328Z,97.96
2022-12-23T06:52:37.711Z,97.79
2022-12-23T06:55:05.006Z,97.86
2022-12-23T06:57:31.616Z,97.80
2022-12-23T07:00:04.122Z,97.72
2022-12-23T07:02:31.458Z,97.93
2022-12-23T07:04:58.898Z,97.95
2022-12-23T07:07:27.672Z,98.07
2022-12-23T07:09:55.454Z,98.06
2022-12-23T07:12:22.284Z,98.12
2022-12-23T07:14:51.600Z,97.63
2022-12-23T07:17:18.500Z,97.79
2022-12-23T07:19:45.446Z,97.96
2022-12-23T07:22:12.053Z,97.88
2022-12-23T07:24:39.140Z,97.94
2022-12-23T07:27:05.970Z,97.89
2022-12-23T07:29:32.816Z,97.92
2022-12-23T07:32:02.571Z,97.97
2022-12-23T07:34:29.576Z,97.89
2022-12-23T07:36:56.609Z,98.07
2022-12-23T07:39:23.168Z,97.86
2022-12-23T07:42:03.826Z,98.00
2022-12-23T07:44:38.437Z,97.97
2022-12-23T07:47:05.780Z,97.87
2022-12-23T07:49:33.071Z,98.06
2022-12-23T07:52:02.175Z,98.02
2022-12-23T07:54:28.683Z,97.72
2022-12-23T07:56:56.292Z,97.70
2022-12-23T07:59:25.770Z,97.92
2022-12-23T08:01:53.910Z,97.96
2022-12-23T08:04:21.863Z,98.09
2022-12-23T08:06:48.809Z,98.04
2022-12-23T08:09:16.137Z,98.01
2022-12-23T08:11:45.452Z,98.13
2022-12-23T08:14:12.914Z,98.02
2022-12-23T08:16:44.578Z,98.00
2022-12-23T08:19:11.180Z,98.02
2022-12-23T08:21:38.117Z,97.93
2022-12-23T08:24:06.316Z,98.07
2022-12-23T08:26:33.551Z,97.98
2022-12-23T08:29:00.501Z,98.15
2022-12-23T08:31:32.406Z,98.04
2022-12-23T08:34:00.904Z,98.09
2022-12-23T08:36:31.278Z,98.12
2022-12-23T08:39:00.652Z,98.05
2022-12-23T08:41:30.802Z,98.16
2022-12-23T08:44:00.216Z,97.94
2022-12-23T08:46:27.572Z,98.04
2022-12-23T08:48:55.921Z,98.05
2022-12-23T08:51:24.402Z,98.07
2022-12-23T08:53:57.914Z,98.03
2022-12-23T08:56:32.396Z,98.04
2022-12-23T08:58:59.787Z,98.22
2022-12-23T09:01:29.708Z,98.09
2022-12-23T09:03:56.948Z,98.22
2022-12-23T09:06:29.655Z,98.06
2022-12-23T09:09:00.268Z,98.07
2022-12-23T09:11:29.678Z,98.10
2022-12-23T09:13:56.845Z,98.07
2022-12-23T09:16:24.396Z,97.95
2022-12-23T09:18:51.656Z,98.12
2022-12-23T09:21:21.788Z,98.15
2022-12-23T09:23:49.198Z,98.06
2022-12-23T09:26:27.975Z,98.17
2022-12-23T09:28:55.505Z,97.99
2022-12-23T09:31:23.201Z,98.02
2022-12-23T09:33:54.680Z,98.08
2022-12-23T09:36:22.728Z,97.97
2022-12-23T09:38:55.500Z,98.17
2022-12-23T09:41:36.604Z,98.07
2022-12-23T09:44:12.822Z,98.10
2022-12-23T09:46:53.880Z,98.18
2022-12-23T09:49:25.531Z,98.21
2022-12-23T09:51:57.937Z,98.18
2022-12-23T09:54:29.151Z,98.02
2022-12-23T09:57:35.615Z,98.05
2022-12-23T10:00:11.483Z,98.22
2022-12-23T10:03:07.453Z,98.23
2022-12-23T10:05:56.707Z,98.16
2022-12-23T10:09:00.315Z,98.24
2022-12-23T10:11:32.694Z,98.17
2022-12-23T10:14:11.917Z,98.08
2022-12-23T10:16:47.111Z,98.05
2022-12-23T10:19:20.346Z,98.21
2022-12-23T10:21:52.909Z,98.07
2022-12-23T10:24:20.404Z,98.10
2022-12-23T10:26:53.609Z,98.24
2022-12-23T10:29:25.326Z,98.24
2022-12-23T10:32:12.130Z,98.21
2022-12-23T10:35:15.998Z,98.23
2022-12-23T10:38:00.618Z,98.20
2022-12-23T10:40:43.791Z,98.28
2022-12-23T10:43:45.563Z,98.15
2022-12-23T10:46:24.093Z,98.26
2022-12-23T10:49:36.354Z,98.40
2022-12-23T10:52:12.730Z,98.15
2022-12-23T10:54:43.112Z,98.13
2022-12-23T10:57:10.676Z,98.25
2022-12-23T10:59:40.099Z,98.42
2022-12-23T11:02:14.053Z,98.22
2022-12-23T11:04:52.590Z,98.35
2022-12-23T11:10:23.549Z,98.32
2022-12-23T11:12:53.372Z,98.13
2022-12-23T11:15:32.784Z,98.36
2022-12-23T11:18:03.396Z,98.35
2022-12-23T11:20:30.676Z,98.28
2022-12-23T11:23:01.858Z,98.34
2022-12-23T11:25:31.314Z,98.42
2022-12-23T11:28:00.192Z,98.26
2022-12-23T11:30:30.417Z,98.47
2022-12-23T11:33:00.240Z,98.41
2022-12-23T11:35:34.457Z,98.37
2022-12-23T11:38:03.329Z,98.42
2022-12-23T11:40:34.432Z,98.20
2022-12-23T11:43:04.031Z,98.28
2022-12-23T11:45:35.595Z,98.30
2022-12-23T11:48:05.396Z,98.35
2022-12-23T11:50:38.210Z,98.36
2022-12-23T11:53:22.528Z,98.45
2022-12-23T11:56:04.327Z,98.21
2022-12-23T11:58:40.681Z,98.35
2022-12-23T12:01:19.094Z,98.40
2022-12-23T12:03:52.616Z,98.45
2022-12-23T12:06:20.512Z,98.32
2022-12-23T12:08:53.305Z,98.42
2022-12-23T12:11:36.859Z,98.32
2022-12-23T12:14:06.494Z,98.54
2022-12-23T12:17:04.719Z,98.46
2022-12-23T12:19:59.654Z,98.28
2022-12-23T12:22:34.992Z,98.48
2022-12-23T12:25:16.840Z,98.44
2022-12-23T12:27:52.435Z,98.48
2022-12-23T12:30:21.197Z,98.31
2022-12-23T12:33:02.146Z,98.46
2022-12-23T12:35:53.465Z,98.48
2022-12-23T12:38:36.805Z,98.35
2022-12-23T12:41:37.959Z,98.34
2022-12-23T12:44:35.980Z,98.46
2022-12-23T12:47:55.775Z,98.33
2022-12-23T12:50:29.439Z,98.46
2022-12-23T12:53:03.653Z,98.41
2022-12-23T12:55:34.941Z,98.54
2022-12-23T12:58:04.777Z,98.37
2022-12-23T13:00:48.115Z,98.41
2022-12-23T13:03:30.879Z,98.48
2022-12-23T13:06:09.468Z,98.47
2022-12-23T13:08:46.138Z,98.48
2022-12-23T13:11:28.506Z,98.31
2022-12-23T13:14:08.146Z,98.40
2022-12-23T13:16:46.802Z,98.40
2022-12-23T13:19:31.536Z,98.41
2022-12-23T13:22:20.425Z,98.19
2022-12-23T13:24:53.314Z,98.56
2022-12-23T13:27:57.692Z,98.49
2022-12-23T13:30:34.324Z,98.48
2022-12-23T13:33:07.615Z,98.43
2022-12-23T13:36:06.055Z,98.55
2022-12-23T13:38:59.952Z,98.54
2022-12-23T13:41:49.991Z,98.58
2022-12-23T13:44:18.899Z,98.44
2022-12-23T13:47:22.788Z,98.39
2022-12-23T13:50:17.631Z,98.52
2022-12-23T13:53:01.208Z,98.39
2022-12-23T13:56:06.702Z,98.59
2022-12-23T13:58:33.724Z,98.59
2022-12-23T14:01:06.038Z,98.59
2022-12-23T14:03:37.674Z,98.57
2022-12-23T14:06:26.292Z,98.51
2022-12-23T14:08:58.056Z,98.41
2022-12-23T14:11:29.113Z,98.58
2022-12-23T14:14:08.228Z,98.58
2022-12-23T14:17:05.582Z,98.51
2022-12-23T14:20:23.183Z,98.51
2022-12-23T14:23:01.425Z,98.55
2022-12-23T14:26:02.793Z,98.50
2022-12-23T14:29:08.955Z,98.69
2022-12-23T14:31:49.614Z,98.55
2022-12-23T14:34:19.771Z,98.61
2022-12-23T14:37:15.413Z,98.56
2022-12-23T14:39:43.081Z,98.62
2022-12-23T14:42:16.599Z,98.61
2022-12-23T14:44:46.968Z,98.60
2022-12-23T14:47:33.944Z,98.60
2022-12-23T14:50:34.678Z,98.65
2022-12-23T14:53:03.870Z,98.54
2022-12-23T14:55:33.190Z,98.54
2022-12-23T14:58:17.016Z,98.57
2022-12-23T15:00:50.519Z,98.58
2022-12-23T15:03:19.645Z,98.59
2022-12-23T15:05:46.937Z,98.45
2022-12-23T15:08:38.128Z,98.51
2022-12-23T15:11:08.616Z,98.50
2022-12-23T15:13:38.396Z,98.59
2022-12-23T15:16:09.387Z,98.52
2022-12-23T15:18:36.532Z,98.31
2022-12-23T15:21:11.102Z,98.55
2022-12-23T15:23:38.420Z,98.32
2022-12-23T15:26:07.439Z,98.56
2022-12-23T15:28:40.938Z,98.48
2022-12-23T15:31:24.990Z,98.67
2022-12-23T15:34:02.866Z,98.52
2022-12-23T15:36:39.156Z,98.47
2022-12-23T15:39:19.026Z,98.38
2022-12-23T15:41:47.541Z,98.60
2022-12-23T15:44:34.729Z,98.58
2022-12-23T15:47:02.110Z,98.43
2022-12-23T15:49:29.102Z,98.37
2022-12-23T15:52:10.606Z,98.57
2022-12-23T15:54:46.352Z,98.50
2022-12-23T15:57:19.731Z,98.67
2022-12-23T15:59:46.629Z,98.62
2022-12-23T16:03:00.367Z,98.63
2022-12-23T16:05:46.390Z,98.52
2022-12-23T16:08:13.513Z,98.49
2022-12-23T16:11:06.791Z,98.50
2022-12-23T16:13:34.249Z,98.58
2022-12-23T16:16:28.995Z,98.49
2022-12-23T16:18:58.774Z,98.57
2022-12-23T16:21:31.301Z,98.81
2022-12-23T16:23:59.594Z,98.57
2022-12-23T16:26:26.370Z,98.62
2022-12-23T16:29:00.627Z,98.55
2022-12-23T16:31:28.117Z,98.58
2022-12-23T16:33:57.650Z,98.51
2022-12-23T16:36:31.158Z,98.48
2022-12-23T16:39:07.100Z,98.73
2022-12-23T16:41:34.332Z,98.57
2022-12-23T16:44:01.398Z,98.52
2022-12-23T16:46:32.170Z,98.74
2022-12-23T16:49:01.033Z,98.60
2022-12-23T16:51:30.437Z,98.68
2022-12-23T16:53:58.318Z,98.58
2022-12-23T16:56:28.657Z,98.68
2022-12-23T16:58:56.675Z,98.72
2022-12-23T17:01:25.319Z,98.71
2022-12-23T17:03:52.395Z,98.56
2022-12-23T17:06:22.255Z,98.63
2022-12-23T17:08:50.345Z,98.66
2022-12-23T17:11:22.539Z,98.68
2022-12-23T17:13:49.002Z,98.61
2022-12-23T17:16:21.422Z,98.72
2022-12-23T17:18:49.736Z,98.65
2022-12-23T17:21:28.702Z,98.66
2022-12-23T17:24:13.563Z,98.56
2022-12-23T17:26:41.638Z,98.81
2022-12-23T17:29:14.457Z,98.80
2022-12-23T17:31:43.346Z,98.71
2022-12-23T17:34:15.547Z,98.58
2022-12-23T17:36:49.233Z,98.81
2022-12-23T17:39:16.767Z,98.71
2022-12-23T17:41:43.419Z,98.72
2022-12-23T17:44:14.310Z,98.85
2022-12-23T17:46:43.739Z,98.89
2022-12-23T17:49:12.166Z,98.83
2022-12-23T17:51:40.600Z,98.91
2022-12-23T17:54:11.026Z,98.63
2022-12-23T17:56:38.011Z,98.72
2022-12-23T17:59:06.327Z,98.80
2022-12-23T18:01:34.048Z,98.74
2022-12-23T18:04:00.673Z,98.75
2022-12-23T18:06:28.828Z,98.80
2022-12-23T18:09:02.212Z,98.90
2022-12-23T18:11:39.046Z,98.88
2022-12-23T18:14:07.710Z,98.80
2022-12-23T18:16:34.715Z,98.82
2022-12-23T18:19:01.290Z,98.77
2022-12-23T18:21:28.750Z,98.86
2022-12-23T18:23:59.659Z,98.73
2022-12-23T18:26:26.444Z,98.91
2022-12-23T18:28:54.666Z,98.76
2022-12-23T18:31:27.655Z,98.84
2022-12-23T18:33:54.522Z,98.78
2022-12-23T18:36:33.568Z,98.70
2022-12-23T18:39:01.264Z,98.79
2022-12-23T18:41:28.030Z,98.73
2022-12-23T18:43:55.941Z,98.76
2022-12-23T18:46:23.521Z,98.72
2022-12-23T18:48:51.857Z,98.71
2022-12-23T18:51:21.336Z,98.73
2022-12-23T18:53:49.138Z,98.60
2022-12-23T18:56:21.182Z,98.58
2022-12-23T18:58:48.747Z,98.73
2022-12-23T19:01:17.472Z,98.68
2022-12-23T19:03:46.784Z,98.53
2022-12-23T19:06:15.706Z,98.61
2022-12-23T19:08:44.289Z,98.65
2022-12-23T19:11:21.128Z,98.48
2022-12-23T19:13:51.633Z,98.46
2022-12-23T19:16:25.953Z,98.39
2022-12-23T19:18:54.444Z,98.39
2022-12-23T19:21:23.276Z,98.38
2022-12-23T19:23:50.273Z,98.57
2022-12-23T19:26:17.217Z,98.46
2022-12-23T19:28:43.986Z,98.36
2022-12-23T19:31:15.679Z,98.21
2022-12-23T19:33:45.343Z,98.26
2022-12-23T19:36:14.871Z,98.39
2022-12-23T19:38:43.103Z,98.31
2022-12-23T19:41:13.056Z,98.28
2022-12-23T19:43:40.272Z,98.09
2022-12-23T19:46:09.457Z,98.11
2022-12-23T19:48:39.144Z,98.08
2022-12-23T19:51:11.439Z,98.12
2022-12-23T19:53:39.328Z,97.94
2022-12-23T20:12:00.651Z,97.52
2022-12-23T20:14:32.128Z,97.55
2022-12-23T20:17:01.103Z,97.35
2022-12-23T20:19:27.952Z,97.14
2022-12-23T20:21:56.219Z,97.21
2022-12-23T20:24:23.149Z,97.17
2022-12-23T20:26:49.866Z,97.23
2022-12-23T20:29:17.352Z,97.04
2022-12-23T20:31:46.361Z,97.01
2022-12-23T20:34:17.298Z,96.97
2022-12-23T20:36:44.603Z,96.84
2022-12-23T20:39:11.910Z,97.10
2022-12-23T20:41:43.245Z,97.01
2022-12-23T20:44:33.785Z,97.09
2022-12-23T20:46:57.638Z,97.14
2022-12-23T20:49:24.666Z,97.08
2022-12-23T20:51:51.909Z,97.00
2022-12-23T20:54:24.929Z,97.13
2022-12-23T20:56:56.088Z,97.03
2022-12-23T20:59:23.123Z,96.90
2022-12-23T21:01:50.678Z,96.84
2022-12-23T21:04:17.838Z,96.98
2022-12-23T21:06:44.885Z,96.96
2022-12-23T21:09:13.779Z,96.95
2022-12-23T21:11:43.318Z,96.72
2022-12-23T21:14:11.697Z,96.60
2022-12-23T21:16:38.927Z,96.39
2022-12-23T21:19:07.207Z,96.18
2022-12-23T21:21:34.144Z,96.19
2022-12-23T21:24:04.719Z,96.14
2022-12-23T21:26:33.041Z,96.08
2022-12-23T21:29:10.343Z,95.95
2022-12-23T21:31:40.095Z,95.86
2022-12-23T21:34:12.316Z,95.48
2022-12-23T21:36:39.827Z,95.22
2022-12-23T21:39:07.920Z,95.09
2022-12-23T21:41:36.811Z,94.92
2022-12-23T21:44:03.964Z,94.80
2022-12-23T21:46:30.736Z,94.75
2022-12-23T21:48:58.532Z,94.48
2022-12-23T21:51:31.779Z,94.45
2022-12-23T21:54:03.770Z,94.34
2022-12-23T21:56:33.243Z,94.42
2022-12-23T21:59:11.647Z,94.23
2022-12-23T22:01:38.833Z,94.05
2022-12-23T22:04:07.910Z,93.83
2022-12-23T22:06:37.451Z,93.81
2022-12-23T22:09:06.473Z,94.01
2022-12-23T22:11:37.681Z,94.04
2022-12-23T22:14:07.410Z,94.00
2022-12-23T22:16:37.942Z,94.08
2022-12-23T22:19:09.802Z,94.06
2022-12-23T22:21:37.294Z,94.29
2022-12-23T22:24:04.591Z,94.41
2022-12-23T22:26:32.940Z,94.46
2022-12-23T22:29:02.887Z,94.55
2022-12-23T22:31:50.537Z,94.69
2022-12-23T22:34:22.747Z,94.77
2022-12-23T22:36:50.211Z,95.01
2022-12-23T22:39:22.024Z,94.86
2022-12-23T22:41:52.329Z,94.94
2022-12-23T22:44:20.536Z,94.90
2022-12-23T22:46:47.271Z,94.66
2022-12-23T22:49:17.927Z,94.48
2022-12-23T22:51:44.913Z,94.32
2022-12-23T22:54:14.438Z,94.34
2022-12-23T22:56:44.279Z,94.35
2022-12-23T22:59:21.071Z,94.26
2022-12-23T23:01:48.783Z,94.35
2022-12-23T23:04:15.586Z,94.30
2022-12-23T23:06:42.637Z,94.24
2022-12-23T23:09:16.028Z,94.32
2022-12-23T23:11:44.365Z,93.77
2022-12-23T23:14:11.529Z,93.50
2022-12-23T23:16:40.233Z,93.28
2022-12-23T23:19:09.401Z,93.05
2022-12-23T23:21:37.755Z,93.10
2022-12-23T23:24:05.349Z,93.02
2022-12-23T23:26:31.968Z,93.01
2022-12-23T23:28:58.586Z,92.97
2022-12-23T23:31:41.959Z,92.84
2022-12-23T23:34:09.998Z,92.46
2022-12-23T23:36:36.893Z,92.35
2022-12-23T23:39:03.570Z,92.32
2022-12-23T23:41:30.289Z,91.69
2022-12-23T23:43:57.751Z,91.63
2022-12-23T23:46:24.874Z,91.54
2022-12-23T23:48:54.741Z,91.33
2022-12-23T23:51:21.841Z,91.42
2022-12-23T23:53:52.936Z,91.23
2022-12-23T23:56:25.333Z,91.43
2022-12-23T23:58:53.442Z,91.45
